createdAt,value
2023-01-15T00:00:18.941Z,25.25
2023-01-15T00:02:43.943Z,25.63
2023-01-15T00:05:09.309Z,28.45
2023-01-15T00:07:33.855Z,26.20
2023-01-15T00:09:58.457Z,27.60
2023-01-15T00:12:23.164Z,27.40
2023-01-15T00:14:47.763Z,27.17
2023-01-15T00:17:14.153Z,26.77
2023-01-15T00:19:39.193Z,25.38
2023-01-15T00:22:03.787Z,29.40
2023-01-15T00:24:45.673Z,27.92
2023-01-15T00:27:29.331Z,24.33
2023-01-15T00:29:53.806Z,24.63
2023-01-15T00:32:19.865Z,25.60
2023-01-15T00:34:44.417Z,26.33
2023-01-15T00:37:08.826Z,26.25
2023-01-15T00:39:33.615Z,27.00
2023-01-15T00:41:58.351Z,25.67
2023-01-15T00:44:23.282Z,26.45
2023-01-15T00:46:49.466Z,26.17
2023-01-15T00:49:15.648Z,28.40
2023-01-15T00:51:40.609Z,27.48
2023-01-15T00:54:05.700Z,26.77
2023-01-15T00:56:30.321Z,28.75
2023-01-15T00:58:55.346Z,27.10
2023-01-15T01:01:20.049Z,26.85
2023-01-15T01:03:48.955Z,26.42
2023-01-15T01:06:15.041Z,27.08
2023-01-15T01:08:39.488Z,27.67
2023-01-15T01:11:06.275Z,29.20
2023-01-15T01:13:30.752Z,28.50
2023-01-15T01:15:55.489Z,25.38
2023-01-15T01:18:20.061Z,28.65
2023-01-15T01:20:44.710Z,27.35
2023-01-15T01:23:10.800Z,27.13
2023-01-15T01:25:35.388Z,26.40
2023-01-15T01:27:59.768Z,26.13
2023-01-15T01:30:24.693Z,25.77
2023-01-15T01:32:49.255Z,26.65
2023-01-15T01:35:13.972Z,27.92
2023-01-15T01:37:38.426Z,28.35
2023-01-15T01:40:04.766Z,27.65
2023-01-15T01:42:29.402Z,28.17
2023-01-15T01:45:06.217Z,27.48
2023-01-15T01:47:32.757Z,27.00
2023-01-15T01:50:06.741Z,26.65
2023-01-15T01:52:38.213Z,28.65
2023-01-15T01:55:05.695Z,27.80
2023-01-15T01:57:30.683Z,25.80
2023-01-15T01:59:56.222Z,28.50
2023-01-15T02:02:23.383Z,27.67
2023-01-15T02:04:48.847Z,26.55
2023-01-15T02:07:13.336Z,27.73
2023-01-15T02:09:37.921Z,28.92
2023-01-15T02:12:13.111Z,30.33
2023-01-15T02:14:44.590Z,28.80
2023-01-15T02:17:14.961Z,28.00
2023-01-15T02:19:51.219Z,29.08
2023-01-15T02:22:24.538Z,29.52
2023-01-15T02:25:02.069Z,29.08
2023-01-15T02:27:29.201Z,31.70
2023-01-15T02:30:02.018Z,29.25
2023-01-15T02:32:40.747Z,30.30
2023-01-15T02:35:10.447Z,29.02
2023-01-15T02:37:40.984Z,29.73
2023-01-15T02:40:08.785Z,29.48
2023-01-15T02:42:37.512Z,29.02
2023-01-15T02:45:06.202Z,30.08
2023-01-15T02:47:35.522Z,30.65
2023-01-15T02:50:06.809Z,32.80
2023-01-15T02:52:41.480Z,32.60
2023-01-15T02:55:10.109Z,30.42
2023-01-15T02:57:45.012Z,31.27
2023-01-15T03:00:16.447Z,30.10
2023-01-15T03:02:47.638Z,32.42
2023-01-15T03:05:19.221Z,29.92
2023-01-15T03:07:50.917Z,32.38
2023-01-15T03:10:17.032Z,31.48
2023-01-15T03:13:03.961Z,31.50
2023-01-15T03:16:06.196Z,31.88
2023-01-15T03:18:35.942Z,31.38
2023-01-15T03:21:07.084Z,30.00
2023-01-15T03:23:32.296Z,29.85
2023-01-15T03:25:57.497Z,28.77
2023-01-15T03:28:27.258Z,29.77
2023-01-15T03:30:52.273Z,29.27
2023-01-15T03:33:17.621Z,26.77
2023-01-15T03:35:48.309Z,28.77
2023-01-15T03:38:25.564Z,29.55
2023-01-15T03:40:58.065Z,27.20
2023-01-15T03:43:43.472Z,26.85
2023-01-15T03:46:15.513Z,26.30
2023-01-15T03:48:48.180Z,26.75
2023-01-15T03:51:19.602Z,26.42
2023-01-15T03:53:50.380Z,27.80
2023-01-15T03:56:23.410Z,24.75
2023-01-15T03:58:54.201Z,25.10
2023-01-15T04:01:32.332Z,25.27
2023-01-15T04:03:59.766Z,25.02
2023-01-15T04:06:28.177Z,26.90
2023-01-15T04:08:55.739Z,24.55
2023-01-15T04:11:25.649Z,25.13
2023-01-15T04:13:56.308Z,23.75
2023-01-15T04:16:43.891Z,23.13
2023-01-15T04:19:10.379Z,23.17
2023-01-15T04:21:39.509Z,23.35
2023-01-15T04:24:04.431Z,22.10
2023-01-15T04:26:28.952Z,22.55
2023-01-15T04:28:53.500Z,22.77
2023-01-15T04:31:20.080Z,22.20
2023-01-15T04:33:44.724Z,24.08
2023-01-15T04:36:10.226Z,22.17
2023-01-15T04:38:34.857Z,21.65
2023-01-15T04:41:20.538Z,20.50
2023-01-15T04:44:02.296Z,23.30
2023-01-15T04:46:28.408Z,25.52
2023-01-15T04:48:53.443Z,23.77
2023-01-15T04:51:18.228Z,24.42
2023-01-15T04:53:42.949Z,24.13
2023-01-15T04:56:08.749Z,24.23
2023-01-15T04:58:33.858Z,23.40
2023-01-15T05:01:00.924Z,24.42
2023-01-15T05:03:27.298Z,24.75
2023-01-15T05:05:51.875Z,26.48
2023-01-15T05:08:16.400Z,24.98
2023-01-15T05:10:41.070Z,25.52
2023-01-15T05:13:06.019Z,24.90
2023-01-15T05:15:30.945Z,24.50
2023-01-15T05:17:55.447Z,24.95
2023-01-15T05:20:21.594Z,26.88
2023-01-15T05:22:46.276Z,25.73
2023-01-15T05:25:11.597Z,24.80
2023-01-15T05:27:37.145Z,24.42
2023-01-15T05:30:01.701Z,24.20
2023-01-15T05:32:26.992Z,25.33
2023-01-15T05:34:51.509Z,25.92
2023-01-15T05:37:17.796Z,24.75
2023-01-15T05:39:42.297Z,25.05
2023-01-15T05:42:08.196Z,25.55
2023-01-15T05:44:32.969Z,25.48
2023-01-15T05:47:00.276Z,25.92
2023-01-15T05:49:26.557Z,25.02
2023-01-15T05:51:52.091Z,25.70
2023-01-15T05:54:20.403Z,25.90
2023-01-15T05:56:46.003Z,26.25
2023-01-15T05:59:11.185Z,24.20
2023-01-15T06:01:36.328Z,26.33
2023-01-15T06:04:01.459Z,26.27
2023-01-15T06:06:26.406Z,27.52
2023-01-15T06:08:50.913Z,26.77
2023-01-15T06:11:17.206Z,27.20
2023-01-15T06:13:42.140Z,28.15
2023-01-15T06:16:07.220Z,27.90
2023-01-15T06:18:33.542Z,26.33
2023-01-15T06:20:58.175Z,26.42
2023-01-15T06:23:24.495Z,28.10
2023-01-15T06:25:49.354Z,28.25
2023-01-15T06:28:15.230Z,27.98
2023-01-15T06:30:41.189Z,28.48
2023-01-15T06:33:05.948Z,29.13
2023-01-15T06:35:30.685Z,29.13
2023-01-15T06:37:55.145Z,29.42
2023-01-15T06:40:20.260Z,29.42
2023-01-15T06:43:02.533Z,29.02
2023-01-15T06:45:55.681Z,29.23
2023-01-15T06:48:20.604Z,29.23
2023-01-15T06:50:45.148Z,30.40
2023-01-15T06:53:09.895Z,30.17
2023-01-15T06:55:34.377Z,28.35
2023-01-15T06:57:59.191Z,29.80
2023-01-15T07:00:23.862Z,30.05
2023-01-15T07:02:50.321Z,31.30
2023-01-15T07:05:15.021Z,30.38
2023-01-15T07:07:39.572Z,30.92
2023-01-15T07:10:04.202Z,29.58
2023-01-15T07:12:28.754Z,30.92
2023-01-15T07:14:53.562Z,30.77
2023-01-15T07:17:18.237Z,33.65
2023-01-15T07:19:44.694Z,31.20
2023-01-15T07:22:11.062Z,29.88
2023-01-15T07:24:35.961Z,31.50
2023-01-15T07:27:01.021Z,29.73
2023-01-15T07:29:25.645Z,28.63
2023-01-15T07:31:50.558Z,29.30
2023-01-15T07:34:15.126Z,30.80
2023-01-15T07:36:41.969Z,29.80
2023-01-15T07:39:07.187Z,29.52
2023-01-15T07:41:49.097Z,28.88
2023-01-15T07:44:31.517Z,32.05
2023-01-15T07:47:13.580Z,29.70
2023-01-15T07:49:47.060Z,29.73
2023-01-15T07:52:13.441Z,31.15
2023-01-15T07:54:37.974Z,32.17
2023-01-15T07:57:02.497Z,31.38
2023-01-15T07:59:27.348Z,32.33
2023-01-15T08:01:52.104Z,31.23
2023-01-15T08:04:16.706Z,32.85
2023-01-15T08:06:41.491Z,32.95
2023-01-15T08:09:07.592Z,32.22
2023-01-15T08:11:49.470Z,33.05
2023-01-15T08:14:32.310Z,31.23
2023-01-15T08:16:56.984Z,34.55
2023-01-15T08:19:21.648Z,31.80
2023-01-15T08:21:46.184Z,32.60
2023-01-15T08:24:12.307Z,35.45
2023-01-15T08:26:36.932Z,33.83
2023-01-15T08:29:01.620Z,32.60
2023-01-15T08:31:26.488Z,32.88
2023-01-15T08:33:51.308Z,32.25
2023-01-15T08:36:22.992Z,35.08
2023-01-15T08:38:50.687Z,34.97
2023-01-15T08:41:16.816Z,32.33
2023-01-15T08:43:41.592Z,33.53
2023-01-15T08:46:07.188Z,35.13
2023-01-15T08:48:33.663Z,35.00
2023-01-15T08:50:58.442Z,33.13
2023-01-15T08:53:24.417Z,33.72
2023-01-15T08:55:49.368Z,33.45
2023-01-15T08:58:17.209Z,34.20
2023-01-15T09:00:42.367Z,35.58
2023-01-15T09:03:07.086Z,35.22
2023-01-15T09:05:31.706Z,36.35
2023-01-15T09:07:56.431Z,33.22
2023-01-15T09:10:21.143Z,37.33
2023-01-15T09:12:46.836Z,33.67
2023-01-15T09:15:13.617Z,33.13
2023-01-15T09:17:40.744Z,30.77
2023-01-15T09:20:06.073Z,33.05
2023-01-15T09:22:34.374Z,32.03
2023-01-15T09:24:59.217Z,33.47
2023-01-15T09:27:24.120Z,32.30
2023-01-15T09:29:48.644Z,32.72
2023-01-15T09:32:14.649Z,31.02
2023-01-15T09:34:39.308Z,30.13
2023-01-15T09:37:03.805Z,32.28
2023-01-15T09:39:30.937Z,31.88
2023-01-15T09:42:13.112Z,31.55
2023-01-15T09:44:51.777Z,30.20
2023-01-15T09:47:24.204Z,29.15
2023-01-15T09:49:59.478Z,29.45
2023-01-15T09:52:33.561Z,27.58
2023-01-15T09:55:04.947Z,27.05
2023-01-15T09:57:31.616Z,27.77
2023-01-15T10:00:02.623Z,29.25
2023-01-15T10:02:45.510Z,27.13
2023-01-15T10:05:17.192Z,28.23
2023-01-15T10:07:52.025Z,27.48
2023-01-15T10:10:21.760Z,27.38
2023-01-15T10:12:48.646Z,26.90
2023-01-15T10:15:37.253Z,23.35
2023-01-15T10:18:03.935Z,22.33
2023-01-15T10:21:05.463Z,22.40
2023-01-15T10:23:40.300Z,22.20
2023-01-15T10:26:17.011Z,22.45
2023-01-15T10:29:08.137Z,21.58
2023-01-15T10:31:53.279Z,21.48
2023-01-15T10:37:00.441Z,21.85
2023-01-15T10:39:31.947Z,21.38
2023-01-15T10:42:11.868Z,21.05
2023-01-15T10:44:47.954Z,21.67
2023-01-15T10:47:16.652Z,19.92
2023-01-15T10:49:43.290Z,20.80
2023-01-15T10:52:18.867Z,21.35
2023-01-15T10:54:48.674Z,20.95
2023-01-15T10:57:20.520Z,19.58
2023-01-15T10:59:50.495Z,19.23
2023-01-15T11:02:26.440Z,16.25
2023-01-15T11:04:51.027Z,17.20
2023-01-15T11:07:18.441Z,17.35
2023-01-15T11:09:44.133Z,18.08
2023-01-15T11:12:39.635Z,17.20
2023-01-15T11:15:32.881Z,18.63
2023-01-15T11:18:15.142Z,17.75
2023-01-15T11:20:46.897Z,16.70
2023-01-15T11:23:15.432Z,17.33
2023-01-15T11:25:44.781Z,17.42
2023-01-15T11:28:10.097Z,17.42
2023-01-15T11:30:37.615Z,16.83
2023-01-15T11:33:04.937Z,18.92
2023-01-15T11:35:29.324Z,17.73
2023-01-15T11:38:07.300Z,18.65
2023-01-15T11:40:33.491Z,17.63
2023-01-15T11:43:15.464Z,18.48
2023-01-15T11:46:06.097Z,18.65
2023-01-15T11:48:48.407Z,19.98
2023-01-15T11:51:16.211Z,18.45
2023-01-15T11:53:44.395Z,18.35
2023-01-15T11:56:13.039Z,18.48
2023-01-15T11:58:44.803Z,18.83
2023-01-15T12:01:09.610Z,18.45
2023-01-15T12:03:37.883Z,16.52
2023-01-15T12:06:06.032Z,17.95
2023-01-15T12:08:48.740Z,17.63
2023-01-15T12:11:36.124Z,19.70
2023-01-15T12:14:17.194Z,18.95
2023-01-15T12:16:49.845Z,19.15
2023-01-15T12:19:22.802Z,18.85
2023-01-15T12:22:03.188Z,18.42
2023-01-15T12:24:59.093Z,16.88
2023-01-15T12:27:53.058Z,16.83
2023-01-15T12:30:26.665Z,17.00
2023-01-15T12:32:59.811Z,17.45
2023-01-15T12:35:38.632Z,18.27
2023-01-15T12:38:12.122Z,17.67
2023-01-15T12:40:45.794Z,16.35
2023-01-15T12:43:35.205Z,16.15
2023-01-15T12:46:02.109Z,17.60
2023-01-15T12:48:35.638Z,16.60
2023-01-15T12:51:03.418Z,16.33
2023-01-15T12:53:33.888Z,17.88
2023-01-15T12:56:04.097Z,17.23
2023-01-15T12:58:40.086Z,17.38
2023-01-15T13:01:12.266Z,16.55
2023-01-15T13:03:49.668Z,16.58
2023-01-15T13:06:17.034Z,18.38
2023-01-15T13:08:52.893Z,18.45
2023-01-15T13:11:17.636Z,18.02
2023-01-15T13:13:58.051Z,16.15
2023-01-15T13:16:29.413Z,15.07
2023-01-15T13:19:12.218Z,16.05
2023-01-15T13:21:40.414Z,14.70
2023-01-15T13:24:41.743Z,14.15
2023-01-15T13:27:18.701Z,14.45
2023-01-15T13:29:57.176Z,16.17
2023-01-15T13:32:24.171Z,14.80
2023-01-15T13:34:51.797Z,14.43
2023-01-15T13:37:29.111Z,15.02
2023-01-15T13:40:03.039Z,13.07
2023-01-15T13:42:38.036Z,13.30
2023-01-15T13:45:23.210Z,15.23
2023-01-15T13:47:50.764Z,13.50
2023-01-15T13:50:19.331Z,13.15
2023-01-15T13:52:44.327Z,12.32
2023-01-15T13:55:18.279Z,11.82
2023-01-15T13:57:44.879Z,11.80
2023-01-15T14:00:30.678Z,12.75
2023-01-15T14:02:57.081Z,11.55
2023-01-15T14:05:30.166Z,14.10
2023-01-15T14:07:55.510Z,12.52
2023-01-15T14:10:34.111Z,12.73
2023-01-15T14:13:19.404Z,11.93
2023-01-15T14:15:54.887Z,12.13
2023-01-15T14:18:34.713Z,12.38
2023-01-15T14:21:24.947Z,12.75
2023-01-15T14:24:14.327Z,12.73
2023-01-15T14:26:50.582Z,13.13
2023-01-15T14:29:35.038Z,13.50
2023-01-15T14:32:11.186Z,13.93
2023-01-15T14:34:37.187Z,12.60
2023-01-15T14:37:05.640Z,14.35
2023-01-15T14:39:35.684Z,14.18
2023-01-15T14:42:25.718Z,13.25
2023-01-15T14:44:59.390Z,13.98
2023-01-15T14:47:31.670Z,15.07
2023-01-15T14:50:19.495Z,14.32
2023-01-15T14:52:47.445Z,14.68
2023-01-15T14:55:14.360Z,15.15
2023-01-15T14:57:39.903Z,14.65
2023-01-15T15:00:06.632Z,13.95
2023-01-15T15:02:39.101Z,14.75
2023-01-15T15:05:09.079Z,13.90
2023-01-15T15:10:05.629Z,14.93
2023-01-15T15:12:39.632Z,14.63
2023-01-15T15:15:12.304Z,16.15
2023-01-15T15:17:46.437Z,17.10
2023-01-15T15:20:40.736Z,16.88
2023-01-15T15:23:14.283Z,17.48
2023-01-15T15:25:41.934Z,16.98
2023-01-15T15:28:08.072Z,17.05
2023-01-15T15:30:35.171Z,18.85
2023-01-15T15:33:01.519Z,17.08
2023-01-15T15:35:29.292Z,17.83
2023-01-15T15:37:54.857Z,17.23
2023-01-15T15:40:21.388Z,17.70
2023-01-15T15:43:13.478Z,18.33
2023-01-15T15:45:55.850Z,20.40
2023-01-15T15:48:41.066Z,21.40
2023-01-15T15:51:06.732Z,19.48
2023-01-15T15:53:31.388Z,20.05
2023-01-15T15:55:58.331Z,20.67
2023-01-15T15:58:26.990Z,22.40
2023-01-15T16:00:53.828Z,20.73
2023-01-15T16:03:23.931Z,20.38
2023-01-15T16:05:57.857Z,20.50
2023-01-15T16:08:23.086Z,22.75
2023-01-15T16:10:50.997Z,22.55
2023-01-15T16:13:22.939Z,21.80
2023-01-15T16:15:49.191Z,24.75
2023-01-15T16:18:21.287Z,22.90
2023-01-15T16:20:47.379Z,24.83
2023-01-15T16:23:22.260Z,23.63
2023-01-15T16:25:58.107Z,27.70
2023-01-15T16:28:26.264Z,29.40
2023-01-15T16:30:57.283Z,28.05
2023-01-15T16:33:21.823Z,26.40
2023-01-15T16:35:48.297Z,24.20
2023-01-15T16:38:21.322Z,23.98
2023-01-15T16:40:48.116Z,24.60
2023-01-15T16:43:16.330Z,23.63
2023-01-15T16:45:59.894Z,24.50
2023-01-15T16:48:31.196Z,24.48
2023-01-15T16:50:58.342Z,23.85
2023-01-15T16:53:38.288Z,23.05
2023-01-15T16:58:41.504Z,23.33
2023-01-15T17:01:37.888Z,24.90
2023-01-15T17:04:04.730Z,27.98
2023-01-15T17:06:31.764Z,26.45
2023-01-15T17:08:58.295Z,26.70
2023-01-15T17:11:26.262Z,28.30
2023-01-15T17:13:51.460Z,29.00
2023-01-15T17:16:20.171Z,29.50
2023-01-15T17:18:45.344Z,28.02
2023-01-15T17:21:18.039Z,24.45
2023-01-15T17:23:44.343Z,26.60
2023-01-15T17:26:12.317Z,26.08
2023-01-15T17:28:36.999Z,22.95
2023-01-15T17:31:03.270Z,26.00
2023-01-15T17:33:27.938Z,25.77
2023-01-15T17:35:56.873Z,26.80
2023-01-15T17:38:22.563Z,24.92
2023-01-15T17:40:48.747Z,25.90
2023-01-15T17:43:15.132Z,24.85
2023-01-15T17:45:39.665Z,25.27
2023-01-15T17:48:08.789Z,26.27
2023-01-15T17:50:33.256Z,26.67
2023-01-15T17:52:57.709Z,25.73
2023-01-15T17:55:42.639Z,25.83
2023-01-15T17:58:29.571Z,25.30
2023-01-15T18:01:12.732Z,27.75
2023-01-15T18:03:58.008Z,25.70
2023-01-15T18:06:23.667Z,24.33
2023-01-15T18:08:53.939Z,24.85
2023-01-15T18:11:18.731Z,24.33
2023-01-15T18:13:44.645Z,23.38
2023-01-15T18:16:09.684Z,22.05
2023-01-15T18:18:34.274Z,22.75
2023-01-15T18:21:00.581Z,23.67
2023-01-15T18:23:26.388Z,23.17
2023-01-15T18:25:50.981Z,22.85
2023-01-15T18:28:16.532Z,27.65
2023-01-15T18:30:42.826Z,28.15
2023-01-15T18:33:07.955Z,28.73
2023-01-15T18:35:32.729Z,29.33
2023-01-15T18:37:58.363Z,36.15
2023-01-15T18:40:27.124Z,39.95
2023-01-15T18:43:09.801Z,32.17
2023-01-15T18:45:52.025Z,47.30
2023-01-15T18:48:18.302Z,45.13
2023-01-15T18:50:43.227Z,45.65
2023-01-15T18:53:08.702Z,36.03
2023-01-15T18:55:33.166Z,29.73
2023-01-15T18:57:58.275Z,32.50
2023-01-15T19:00:24.558Z,36.28
2023-01-15T19:02:49.597Z,51.65
2023-01-15T19:05:17.303Z,62.47
2023-01-15T19:07:43.720Z,57.95
2023-01-15T19:10:09.229Z,46.95
2023-01-15T19:12:35.349Z,50.08
2023-01-15T19:15:17.247Z,51.95
2023-01-15T19:17:59.090Z,43.65
2023-01-15T19:20:25.093Z,34.40
2023-01-15T19:23:05.171Z,41.33
2023-01-15T19:25:33.618Z,40.88
2023-01-15T19:27:59.034Z,50.40
2023-01-15T19:30:24.405Z,54.03
2023-01-15T19:32:51.999Z,51.70
2023-01-15T19:35:21.455Z,53.22
2023-01-15T19:37:50.450Z,41.28
2023-01-15T19:40:18.446Z,36.45
2023-01-15T19:43:00.401Z,45.05
2023-01-15T19:45:42.662Z,51.03
2023-01-15T19:48:27.362Z,41.38
2023-01-15T19:50:54.277Z,38.83
2023-01-15T19:53:20.572Z,34.83
2023-01-15T19:55:46.356Z,36.22
2023-01-15T19:58:16.137Z,36.47
2023-01-15T20:03:09.986Z,35.10
2023-01-15T20:05:34.628Z,32.15
2023-01-15T20:07:59.902Z,32.97
2023-01-15T20:10:27.957Z,27.95
2023-01-15T20:13:10.061Z,28.80
2023-01-15T20:15:34.603Z,27.58
2023-01-15T20:17:59.622Z,26.63
2023-01-15T20:20:24.673Z,27.55
2023-01-15T20:22:49.745Z,28.27
2023-01-15T20:25:14.326Z,24.42
2023-01-15T20:27:41.324Z,23.75
2023-01-15T20:30:08.514Z,23.08
2023-01-15T20:32:33.381Z,27.80
2023-01-15T20:34:57.739Z,42.03
2023-01-15T20:37:23.352Z,50.60
2023-01-15T20:39:47.772Z,54.58
2023-01-15T20:42:29.994Z,52.05
2023-01-15T20:44:55.935Z,47.00
2023-01-15T20:47:37.597Z,38.65
2023-01-15T20:50:02.339Z,42.45
2023-01-15T20:52:27.570Z,42.35
2023-01-15T20:54:52.045Z,42.60
2023-01-15T20:57:16.621Z,39.45
2023-01-15T20:59:41.120Z,55.95
2023-01-15T21:02:07.414Z,48.25
2023-01-15T21:04:32.365Z,41.03
2023-01-15T21:06:59.293Z,41.13
2023-01-15T21:09:23.807Z,42.60
2023-01-15T21:11:48.364Z,43.92
2023-01-15T21:14:12.861Z,58.70
2023-01-15T21:16:37.360Z,54.67
2023-01-15T21:19:04.927Z,36.72
2023-01-15T21:21:29.483Z,29.17
2023-01-15T21:23:53.820Z,25.70
2023-01-15T21:26:18.460Z,25.55
2023-01-15T21:28:44.311Z,32.15
2023-01-15T21:31:09.615Z,41.08
2023-01-15T21:33:34.513Z,35.22
2023-01-15T21:36:00.385Z,33.30
2023-01-15T21:38:24.839Z,31.67
2023-01-15T21:40:49.308Z,27.42
2023-01-15T21:43:31.112Z,24.27
2023-01-15T21:46:03.231Z,24.83
2023-01-15T21:48:28.029Z,26.92
2023-01-15T21:50:52.463Z,22.92
2023-01-15T21:53:18.472Z,24.85
2023-01-15T21:55:50.052Z,24.73
2023-01-15T21:58:14.570Z,23.40
2023-01-15T22:00:39.394Z,22.77
2023-01-15T22:03:04.045Z,22.60
2023-01-15T22:05:28.495Z,24.40
2023-01-15T22:07:53.289Z,28.45
2023-01-15T22:10:19.420Z,31.45
2023-01-15T22:12:43.818Z,31.95
2023-01-15T22:15:09.100Z,29.95
2023-01-15T22:17:33.633Z,28.50
2023-01-15T22:19:58.048Z,29.38
2023-01-15T22:22:23.059Z,30.60
2023-01-15T22:24:47.577Z,31.38
2023-01-15T22:27:16.659Z,27.88
2023-01-15T22:29:42.296Z,28.43
2023-01-15T22:32:07.725Z,30.10
2023-01-15T22:34:32.358Z,34.42
2023-01-15T22:36:57.001Z,39.95
2023-01-15T22:39:22.299Z,36.60
2023-01-15T22:42:04.834Z,32.78
2023-01-15T22:44:30.951Z,31.00
2023-01-15T22:46:55.311Z,35.78
2023-01-15T22:49:19.771Z,40.50
2023-01-15T22:51:44.148Z,36.83
2023-01-15T22:54:08.784Z,33.53
2023-01-15T22:56:33.243Z,37.22
2023-01-15T22:58:57.804Z,37.95
2023-01-15T23:01:24.431Z,46.92
2023-01-15T23:03:49.233Z,41.50
2023-01-15T23:06:13.908Z,36.28
2023-01-15T23:08:39.303Z,35.92
2023-01-15T23:11:03.944Z,33.60
2023-01-15T23:13:28.336Z,31.42
2023-01-15T23:15:58.166Z,33.10
2023-01-15T23:18:23.988Z,34.80
2023-01-15T23:20:48.290Z,32.60
2023-01-15T23:23:12.728Z,33.30
2023-01-15T23:25:37.077Z,33.03
2023-01-15T23:28:01.475Z,31.40
2023-01-15T23:30:25.839Z,35.42
2023-01-15T23:32:50.374Z,51.88
2023-01-15T23:35:16.356Z,59.83
2023-01-15T23:37:40.793Z,62.60
2023-01-15T23:40:05.731Z,39.72
2023-01-15T23:42:47.747Z,35.00
2023-01-15T23:45:29.981Z,35.35
2023-01-15T23:47:54.416Z,37.55
2023-01-15T23:50:20.264Z,31.52
2023-01-15T23:52:44.868Z,31.33
2023-01-15T23:55:10.201Z,36.47
2023-01-15T23:57:34.856Z,34.45
2023-01-15T23:59:59.247Z,36.17
